createdAt,value
2023-05-13T00:01:20.884Z,1.10
2023-05-13T00:03:47.721Z,1.17
2023-05-13T00:06:14.772Z,1.00
2023-05-13T00:08:41.478Z,1.00
2023-05-13T00:11:08.231Z,1.23
2023-05-13T00:13:34.939Z,1.00
2023-05-13T00:16:02.876Z,1.00
2023-05-13T00:18:29.908Z,1.13
2023-05-13T00:20:56.625Z,1.00
2023-05-13T00:23:23.258Z,1.40
2023-05-13T00:25:50.042Z,1.10
2023-05-13T00:28:16.924Z,1.03
2023-05-13T00:30:45.467Z,1.10
2023-05-13T00:33:12.298Z,1.10
2023-05-13T00:35:38.947Z,1.00
2023-05-13T00:38:05.647Z,1.10
2023-05-13T00:40:34.690Z,1.20
2023-05-13T00:43:01.432Z,1.20
2023-05-13T00:45:28.399Z,1.20
2023-05-13T00:47:55.122Z,1.30
2023-05-13T00:50:22.114Z,1.33
2023-05-13T00:52:50.969Z,1.40
2023-05-13T00:55:17.889Z,1.30
2023-05-13T00:57:44.612Z,1.50
2023-05-13T01:00:12.231Z,1.50
2023-05-13T01:02:43.195Z,1.30
2023-05-13T01:05:24.821Z,1.53
2023-05-13T01:08:20.217Z,1.40
2023-05-13T01:10:51.371Z,1.47
2023-05-13T01:13:24.433Z,1.30
2023-05-13T01:16:01.730Z,1.40
2023-05-13T01:18:36.105Z,1.70
2023-05-13T01:21:04.909Z,1.70
2023-05-13T01:23:32.196Z,1.53
2023-05-13T01:25:59.496Z,1.70
2023-05-13T01:28:26.832Z,1.40
2023-05-13T01:30:57.099Z,1.30
2023-05-13T01:33:26.360Z,1.53
2023-05-13T01:35:53.432Z,1.90
2023-05-13T01:38:21.735Z,1.53
2023-05-13T01:40:53.279Z,1.90
2023-05-13T01:43:20.003Z,1.57
2023-05-13T01:45:47.384Z,1.80
2023-05-13T01:48:14.710Z,1.60
2023-05-13T01:50:44.480Z,1.93
2023-05-13T01:53:11.866Z,1.80
2023-05-13T01:55:38.941Z,1.80
2023-05-13T01:58:05.866Z,1.80
2023-05-13T02:00:32.550Z,2.00
2023-05-13T02:02:59.317Z,1.83
2023-05-13T02:05:26.150Z,1.70
2023-05-13T02:07:53.934Z,1.80
2023-05-13T02:10:20.830Z,1.60
2023-05-13T02:12:50.135Z,1.83
2023-05-13T02:15:18.227Z,1.90
2023-05-13T02:17:45.006Z,1.80
2023-05-13T02:20:12.641Z,1.87
2023-05-13T02:22:39.302Z,1.90
2023-05-13T02:25:07.651Z,1.87
2023-05-13T02:27:37.014Z,1.77
2023-05-13T02:30:04.690Z,1.50
2023-05-13T02:32:31.832Z,1.90
2023-05-13T02:34:58.474Z,2.10
2023-05-13T02:37:25.076Z,1.77
2023-05-13T02:39:59.090Z,1.87
2023-05-13T02:42:25.857Z,1.90
2023-05-13T02:44:52.574Z,1.77
2023-05-13T02:47:20.024Z,1.60
2023-05-13T02:49:46.810Z,1.87
2023-05-13T02:52:13.467Z,2.33
2023-05-13T02:54:40.185Z,1.77
2023-05-13T02:57:07.111Z,1.80
2023-05-13T02:59:34.235Z,1.80
2023-05-13T03:02:00.899Z,2.20
2023-05-13T03:04:27.558Z,2.00
2023-05-13T03:06:54.309Z,1.97
2023-05-13T03:09:21.049Z,1.90
2023-05-13T03:11:48.020Z,1.90
2023-05-13T03:14:14.710Z,2.00
2023-05-13T03:16:41.385Z,2.20
2023-05-13T03:19:08.166Z,2.00
2023-05-13T03:21:34.938Z,2.27
2023-05-13T03:24:01.721Z,2.20
2023-05-13T03:26:28.386Z,2.00
2023-05-13T03:28:55.562Z,2.07
2023-05-13T03:31:23.086Z,2.10
2023-05-13T03:33:49.868Z,2.20
2023-05-13T03:36:16.552Z,2.10
2023-05-13T03:38:43.286Z,2.40
2023-05-13T03:41:10.110Z,1.90
2023-05-13T03:43:36.906Z,2.10
2023-05-13T03:46:08.082Z,2.30
2023-05-13T03:48:34.710Z,2.00
2023-05-13T03:51:02.840Z,2.50
2023-05-13T03:53:29.927Z,2.20
2023-05-13T03:55:57.565Z,1.90
2023-05-13T03:58:24.195Z,2.23
2023-05-13T04:00:50.897Z,2.50
2023-05-13T04:03:18.584Z,2.60
2023-05-13T04:05:49.200Z,2.57
2023-05-13T04:08:15.934Z,2.63
2023-05-13T04:10:43.286Z,2.47
2023-05-13T04:13:11.271Z,2.50
2023-05-13T04:15:37.942Z,2.83
2023-05-13T04:18:06.093Z,2.57
2023-05-13T04:20:34.371Z,2.90
2023-05-13T04:23:01.807Z,2.80
2023-05-13T04:25:29.465Z,3.00
2023-05-13T04:27:56.137Z,2.73
2023-05-13T04:30:28.622Z,2.90
2023-05-13T04:32:55.792Z,2.93
2023-05-13T04:35:22.924Z,3.00
2023-05-13T04:37:53.739Z,3.10
2023-05-13T04:40:21.561Z,3.30
2023-05-13T04:42:54.537Z,3.57
2023-05-13T04:45:25.772Z,3.50
2023-05-13T04:47:52.414Z,3.73
2023-05-13T04:50:19.456Z,3.13
2023-05-13T04:52:47.539Z,3.10
2023-05-13T04:55:15.062Z,3.27
2023-05-13T04:57:42.459Z,3.00
2023-05-13T05:00:11.085Z,3.13
2023-05-13T05:02:39.375Z,3.13
2023-05-13T05:05:06.530Z,2.70
2023-05-13T05:07:40.222Z,3.13
2023-05-13T05:10:08.533Z,3.10
2023-05-13T05:12:38.201Z,3.00
2023-05-13T05:15:06.260Z,3.37
2023-05-13T05:17:34.047Z,3.20
2023-05-13T05:20:02.634Z,3.37
2023-05-13T05:22:29.491Z,2.97
2023-05-13T05:24:56.710Z,3.13
2023-05-13T05:27:24.973Z,3.33
2023-05-13T05:29:52.086Z,3.30
2023-05-13T05:32:19.539Z,3.30
2023-05-13T05:34:46.325Z,3.63
2023-05-13T05:37:13.147Z,3.77
2023-05-13T05:39:41.111Z,3.40
2023-05-13T05:42:08.730Z,3.43
2023-05-13T05:44:36.167Z,3.53
2023-05-13T05:47:03.201Z,3.00
2023-05-13T05:49:32.602Z,3.10
2023-05-13T05:51:59.314Z,3.40
2023-05-13T05:54:28.128Z,3.00
2023-05-13T05:56:54.857Z,3.00
2023-05-13T05:59:21.579Z,2.87
2023-05-13T06:01:48.865Z,2.67
2023-05-13T06:04:15.733Z,2.57
2023-05-13T06:06:42.446Z,2.90
2023-05-13T06:09:09.089Z,2.80
2023-05-13T06:11:35.801Z,3.03
2023-05-13T06:14:03.330Z,2.50
2023-05-13T06:16:30.240Z,2.53
2023-05-13T06:18:57.189Z,2.97
2023-05-13T06:21:25.254Z,2.90
2023-05-13T06:23:51.951Z,2.40
2023-05-13T06:26:20.829Z,2.80
2023-05-13T06:28:47.467Z,2.40
2023-05-13T06:31:15.064Z,2.50
2023-05-13T06:33:43.591Z,2.40
2023-05-13T06:36:10.276Z,2.40
2023-05-13T06:38:37.099Z,2.40
2023-05-13T06:41:03.994Z,2.30
2023-05-13T06:43:36.084Z,2.20
2023-05-13T06:46:13.120Z,2.17
2023-05-13T06:48:39.952Z,1.90
2023-05-13T06:51:07.081Z,2.00
2023-05-13T06:53:33.801Z,1.87
2023-05-13T06:56:00.468Z,2.07
2023-05-13T06:58:27.761Z,1.97
2023-05-13T07:00:54.487Z,2.17
2023-05-13T07:03:21.214Z,2.13
2023-05-13T07:05:47.959Z,1.70
2023-05-13T07:08:17.821Z,1.87
2023-05-13T07:10:44.973Z,2.00
2023-05-13T07:13:12.413Z,1.80
2023-05-13T07:15:39.183Z,1.70
2023-05-13T07:18:05.927Z,1.80
2023-05-13T07:20:32.839Z,2.70
2023-05-13T07:22:59.495Z,2.90
2023-05-13T07:25:26.210Z,3.50
2023-05-13T07:27:52.933Z,2.10
2023-05-13T07:30:19.751Z,1.80
2023-05-13T07:32:46.740Z,1.80
2023-05-13T07:35:13.740Z,1.93
2023-05-13T07:37:40.520Z,2.03
2023-05-13T07:40:10.654Z,1.90
2023-05-13T07:42:37.596Z,1.80
2023-05-13T07:45:04.788Z,1.83
2023-05-13T07:47:31.944Z,1.63
2023-05-13T07:49:58.867Z,1.30
2023-05-13T07:52:26.291Z,1.50
2023-05-13T07:54:52.991Z,1.40
2023-05-13T07:57:19.686Z,1.77
2023-05-13T07:59:46.340Z,1.90
2023-05-13T08:02:13.086Z,1.87
2023-05-13T08:04:40.109Z,1.70
2023-05-13T08:07:06.884Z,1.60
2023-05-13T08:09:33.532Z,1.70
2023-05-13T08:12:00.570Z,1.80
2023-05-13T08:14:27.291Z,1.80
2023-05-13T08:16:54.437Z,1.90
2023-05-13T08:19:21.483Z,1.93
2023-05-13T08:21:48.374Z,1.73
2023-05-13T08:24:15.031Z,1.60
2023-05-13T08:26:41.985Z,1.70
2023-05-13T08:29:12.783Z,1.87
2023-05-13T08:31:39.422Z,1.50
2023-05-13T08:34:06.437Z,1.80
2023-05-13T08:36:33.877Z,1.90
2023-05-13T08:39:01.361Z,1.87
2023-05-13T08:41:29.865Z,1.90
2023-05-13T08:44:00.714Z,1.77
2023-05-13T08:46:28.891Z,1.70
2023-05-13T08:48:55.997Z,1.50
2023-05-13T08:51:22.816Z,1.80
2023-05-13T08:53:51.606Z,1.50
2023-05-13T08:56:18.387Z,1.83
2023-05-13T08:58:44.990Z,1.60
2023-05-13T09:01:12.470Z,1.70
2023-05-13T09:03:52.383Z,1.70
2023-05-13T09:06:19.034Z,1.80
2023-05-13T09:08:45.983Z,1.58
2023-05-13T09:11:16.294Z,1.50
2023-05-13T09:13:44.605Z,1.70
2023-05-13T09:16:14.161Z,1.80
2023-05-13T09:18:42.135Z,1.67
2023-05-13T09:21:24.825Z,1.95
2023-05-13T09:23:56.365Z,2.03
2023-05-13T09:26:30.236Z,2.03
2023-05-13T09:29:21.299Z,2.00
2023-05-13T09:31:54.928Z,1.90
2023-05-13T09:34:26.857Z,1.90
2023-05-13T09:37:08.096Z,2.10
2023-05-13T09:39:40.146Z,1.90
2023-05-13T09:42:15.673Z,1.83
2023-05-13T09:44:48.862Z,1.92
2023-05-13T09:47:17.004Z,2.05
2023-05-13T09:49:44.893Z,1.75
2023-05-13T09:52:17.115Z,1.80
2023-05-13T09:54:44.296Z,1.92
2023-05-13T09:57:13.642Z,1.92
2023-05-13T09:59:40.617Z,2.08
2023-05-13T10:02:08.544Z,1.75
2023-05-13T10:04:35.215Z,1.92
2023-05-13T10:07:09.604Z,1.90
2023-05-13T10:09:37.865Z,2.00
2023-05-13T10:12:07.520Z,2.30
2023-05-13T10:14:36.893Z,1.88
2023-05-13T10:17:05.277Z,2.03
2023-05-13T10:19:32.421Z,2.00
2023-05-13T10:21:59.326Z,1.80
2023-05-13T10:24:28.848Z,2.00
2023-05-13T10:26:56.331Z,2.17
2023-05-13T10:29:24.804Z,2.10
2023-05-13T10:31:51.813Z,1.98
2023-05-13T10:34:18.554Z,1.90
2023-05-13T10:37:03.708Z,2.25
2023-05-13T10:40:08.625Z,1.90
2023-05-13T10:42:40.908Z,2.30
2023-05-13T10:45:10.964Z,2.38
2023-05-13T10:47:38.313Z,2.20
2023-05-13T10:50:25.882Z,2.28
2023-05-13T10:52:57.107Z,2.10
2023-05-13T10:55:26.123Z,2.20
2023-05-13T10:58:04.667Z,2.30
2023-05-13T11:00:31.974Z,2.15
2023-05-13T11:03:29.750Z,2.20
2023-05-13T11:06:01.031Z,2.33
2023-05-13T11:08:40.813Z,2.00
2023-05-13T11:11:23.274Z,2.05
2023-05-13T11:13:51.321Z,2.25
2023-05-13T11:16:23.090Z,2.25
2023-05-13T11:18:51.891Z,2.42
2023-05-13T11:21:30.116Z,2.60
2023-05-13T11:23:59.022Z,2.35
2023-05-13T11:26:25.809Z,2.20
2023-05-13T11:29:03.512Z,2.30
2023-05-13T11:31:43.563Z,2.05
2023-05-13T11:34:13.005Z,2.10
2023-05-13T11:36:41.934Z,2.30
2023-05-13T11:39:21.371Z,2.22
2023-05-13T11:41:53.287Z,2.28
2023-05-13T11:44:21.551Z,2.42
2023-05-13T11:46:59.835Z,2.47
2023-05-13T11:49:32.872Z,3.53
2023-05-13T11:52:03.368Z,3.10
2023-05-13T11:54:30.297Z,2.65
2023-05-13T11:56:57.080Z,2.60
2023-05-13T11:59:24.634Z,2.20
2023-05-13T12:02:02.003Z,2.25
2023-05-13T12:04:30.698Z,2.33
2023-05-13T12:06:58.042Z,2.53
2023-05-13T12:09:25.476Z,2.25
2023-05-13T12:11:53.771Z,2.28
2023-05-13T12:14:21.554Z,2.27
2023-05-13T12:16:48.827Z,2.40
2023-05-13T12:19:15.654Z,2.50
2023-05-13T12:21:42.557Z,2.28
2023-05-13T12:24:22.082Z,1.90
2023-05-13T12:26:49.381Z,2.63
2023-05-13T12:29:16.296Z,3.03
2023-05-13T12:32:03.919Z,2.47
2023-05-13T12:34:32.473Z,3.70
2023-05-13T12:37:11.016Z,2.93
2023-05-13T12:39:38.315Z,3.20
2023-05-13T12:42:05.192Z,3.20
2023-05-13T12:44:32.053Z,4.37
2023-05-13T12:46:59.248Z,3.47
2023-05-13T12:49:26.280Z,2.50
2023-05-13T12:51:52.949Z,2.30
2023-05-13T12:54:19.632Z,2.37
2023-05-13T12:56:46.520Z,2.40
2023-05-13T12:59:14.371Z,2.63
2023-05-13T13:01:42.779Z,2.43
2023-05-13T13:04:12.722Z,2.27
2023-05-13T13:06:39.704Z,2.30
2023-05-13T13:09:06.400Z,2.73
2023-05-13T13:11:33.074Z,2.20
2023-05-13T13:13:59.747Z,2.20
2023-05-13T13:16:32.946Z,2.13
2023-05-13T13:19:01.793Z,2.07
2023-05-13T13:21:28.899Z,2.10
2023-05-13T13:23:55.567Z,2.40
2023-05-13T13:26:23.173Z,2.20
2023-05-13T13:28:52.804Z,2.30
2023-05-13T13:31:19.455Z,2.10
2023-05-13T13:33:46.172Z,2.50
2023-05-13T13:36:15.142Z,2.20
2023-05-13T13:38:41.780Z,2.30
2023-05-13T13:41:08.538Z,2.10
2023-05-13T13:43:35.212Z,2.17
2023-05-13T13:46:02.232Z,1.90
2023-05-13T13:48:28.953Z,1.80
2023-05-13T13:50:55.567Z,2.10
2023-05-13T13:53:22.263Z,1.80
2023-05-13T13:55:49.011Z,1.90
2023-05-13T13:58:15.771Z,1.90
2023-05-13T14:00:42.470Z,2.13
2023-05-13T14:03:09.292Z,1.90
2023-05-13T14:05:39.077Z,1.90
2023-05-13T14:08:08.459Z,2.00
2023-05-13T14:10:35.218Z,1.93
2023-05-13T14:13:01.988Z,2.07
2023-05-13T14:15:30.585Z,2.03
2023-05-13T14:17:57.616Z,2.07
2023-05-13T14:20:25.024Z,2.00
2023-05-13T14:22:51.777Z,1.73
2023-05-13T14:25:18.446Z,2.07
2023-05-13T14:27:45.390Z,2.00
2023-05-13T14:30:15.152Z,2.17
2023-05-13T14:32:45.595Z,2.20
2023-05-13T14:35:13.132Z,2.17
2023-05-13T14:37:41.463Z,1.97
2023-05-13T14:40:11.113Z,1.93
2023-05-13T14:42:37.886Z,1.90
2023-05-13T14:45:04.912Z,2.07
2023-05-13T14:47:31.792Z,2.20
2023-05-13T14:49:58.634Z,2.30
2023-05-13T14:52:25.482Z,2.20
2023-05-13T14:54:52.216Z,2.37
2023-05-13T14:57:19.087Z,2.50
2023-05-13T14:59:45.719Z,1.93
2023-05-13T15:02:13.821Z,2.27
2023-05-13T15:04:40.584Z,2.40
2023-05-13T15:07:07.429Z,2.17
2023-05-13T15:09:34.080Z,1.97
2023-05-13T15:12:00.877Z,1.57
2023-05-13T15:14:28.254Z,1.70
2023-05-13T15:16:55.106Z,2.00
2023-05-13T15:19:21.827Z,1.70
2023-05-13T15:21:48.444Z,1.77
2023-05-13T15:24:15.220Z,1.57
2023-05-13T15:26:41.865Z,1.70
2023-05-13T15:29:08.527Z,1.90
2023-05-13T15:31:35.414Z,1.90
2023-05-13T15:34:03.178Z,2.00
2023-05-13T15:36:29.849Z,1.63
2023-05-13T15:39:10.799Z,1.83
2023-05-13T15:41:37.674Z,2.13
2023-05-13T15:44:05.233Z,1.50
2023-05-13T15:46:33.566Z,1.90
2023-05-13T15:49:01.051Z,2.00
2023-05-13T15:51:28.291Z,2.13
2023-05-13T15:53:54.942Z,2.30
2023-05-13T15:56:25.699Z,2.20
2023-05-13T15:58:52.882Z,2.20
2023-05-13T16:01:19.586Z,2.37
2023-05-13T16:03:46.318Z,2.87
2023-05-13T16:06:13.373Z,2.43
2023-05-13T16:08:39.996Z,2.53
2023-05-13T16:11:06.721Z,2.13
2023-05-13T16:13:33.447Z,2.30
2023-05-13T16:16:00.216Z,2.30
2023-05-13T16:18:26.956Z,2.00
2023-05-13T16:20:54.854Z,2.20
2023-05-13T16:23:21.562Z,2.10
2023-05-13T16:25:48.198Z,2.00
2023-05-13T16:28:15.484Z,2.30
2023-05-13T16:30:42.567Z,2.20
2023-05-13T16:33:09.581Z,2.17
2023-05-13T16:35:38.822Z,1.93
2023-05-13T16:38:05.929Z,2.00
2023-05-13T16:40:33.289Z,2.10
2023-05-13T16:43:03.264Z,2.10
2023-05-13T16:45:30.949Z,2.37
2023-05-13T16:47:57.774Z,2.23
2023-05-13T16:50:24.800Z,2.30
2023-05-13T16:52:54.852Z,2.33
2023-05-13T16:55:22.395Z,2.20
2023-05-13T16:57:49.099Z,2.33
2023-05-13T17:00:16.106Z,2.20
2023-05-13T17:02:43.264Z,2.30
2023-05-13T17:05:10.017Z,2.37
2023-05-13T17:07:36.734Z,1.97
2023-05-13T17:10:03.803Z,1.97
2023-05-13T17:12:30.571Z,2.27
2023-05-13T17:14:57.248Z,1.93
2023-05-13T17:17:23.983Z,2.30
2023-05-13T17:19:50.656Z,2.17
2023-05-13T17:22:17.379Z,2.60
2023-05-13T17:24:44.044Z,2.63
2023-05-13T17:27:10.892Z,2.60
2023-05-13T17:29:37.688Z,2.70
2023-05-13T17:32:05.196Z,2.43
2023-05-13T17:34:31.850Z,2.43
2023-05-13T17:36:58.540Z,2.83
2023-05-13T17:39:25.372Z,2.23
2023-05-13T17:41:52.198Z,2.50
2023-05-13T17:44:19.959Z,2.20
2023-05-13T17:46:46.725Z,2.10
2023-05-13T17:49:19.028Z,2.80
2023-05-13T17:51:45.782Z,2.47
2023-05-13T17:54:12.472Z,2.20
2023-05-13T17:56:39.215Z,2.37
2023-05-13T17:59:06.777Z,1.90
2023-05-13T18:01:33.466Z,2.30
2023-05-13T18:04:00.756Z,2.40
2023-05-13T18:06:27.480Z,2.07
2023-05-13T18:08:54.386Z,2.07
2023-05-13T18:11:23.761Z,2.20
2023-05-13T18:13:58.580Z,2.30
2023-05-13T18:16:25.346Z,2.73
2023-05-13T18:18:52.104Z,2.17
2023-05-13T18:21:18.889Z,2.43
2023-05-13T18:23:46.496Z,2.20
2023-05-13T18:26:16.317Z,2.37
2023-05-13T18:28:45.756Z,2.33
2023-05-13T18:31:12.562Z,2.40
2023-05-13T18:33:45.484Z,2.30
2023-05-13T18:36:12.221Z,2.50
2023-05-13T18:38:41.790Z,2.40
2023-05-13T18:41:09.222Z,2.30
2023-05-13T18:43:35.882Z,2.60
2023-05-13T18:46:02.603Z,2.17
2023-05-13T18:48:29.347Z,2.40
2023-05-13T18:50:58.723Z,2.60
2023-05-13T18:53:25.392Z,2.40
2023-05-13T18:55:52.256Z,2.47
2023-05-13T18:58:21.836Z,2.40
2023-05-13T19:00:48.656Z,2.60
2023-05-13T19:03:15.550Z,2.90
2023-05-13T19:05:42.321Z,2.60
2023-05-13T19:08:08.977Z,2.47
2023-05-13T19:10:40.008Z,2.73
2023-05-13T19:13:07.515Z,2.60
2023-05-13T19:15:34.253Z,2.83
2023-05-13T19:18:01.276Z,2.67
2023-05-13T19:20:29.731Z,2.53
2023-05-13T19:22:56.419Z,2.40
2023-05-13T19:25:26.062Z,2.50
2023-05-13T19:27:52.919Z,2.20
2023-05-13T19:30:19.643Z,2.43
2023-05-13T19:32:46.707Z,2.70
2023-05-13T19:35:13.379Z,2.47
2023-05-13T19:37:40.325Z,2.60
2023-05-13T19:40:10.732Z,2.83
2023-05-13T19:42:37.818Z,2.40
2023-05-13T19:45:07.533Z,2.87
2023-05-13T19:47:37.461Z,3.03
2023-05-13T19:50:04.751Z,3.57
2023-05-13T19:52:31.462Z,3.20
2023-05-13T19:54:58.556Z,3.17
2023-05-13T19:57:28.012Z,3.23
2023-05-13T19:59:55.982Z,3.93
2023-05-13T20:02:22.766Z,3.63
2023-05-13T20:04:49.498Z,3.50
2023-05-13T20:07:16.200Z,3.80
2023-05-13T20:09:43.007Z,3.33
2023-05-13T20:12:09.838Z,3.80
2023-05-13T20:14:47.011Z,3.70
2023-05-13T20:17:19.417Z,3.20
2023-05-13T20:19:49.593Z,3.80
2023-05-13T20:22:17.815Z,4.10
2023-05-13T20:24:48.866Z,3.67
2023-05-13T20:27:16.899Z,6.07
2023-05-13T20:29:45.712Z,9.33
2023-05-13T20:32:12.883Z,9.23
2023-05-13T20:34:39.861Z,10.80
2023-05-13T20:37:06.685Z,11.87
2023-05-13T20:39:33.332Z,13.37
2023-05-13T20:41:59.960Z,9.67
2023-05-13T20:44:26.640Z,6.30
2023-05-13T20:46:53.372Z,4.70
2023-05-13T20:49:20.042Z,5.00
2023-05-13T20:51:48.140Z,5.27
2023-05-13T20:54:15.301Z,6.43
2023-05-13T20:56:41.952Z,5.40
2023-05-13T20:59:08.882Z,4.90
2023-05-13T21:01:36.101Z,3.70
2023-05-13T21:04:05.853Z,4.20
2023-05-13T21:06:32.962Z,3.83
2023-05-13T21:08:59.580Z,4.03
2023-05-13T21:11:26.466Z,4.17
2023-05-13T21:13:53.194Z,4.03
2023-05-13T21:16:19.858Z,4.07
2023-05-13T21:18:46.683Z,3.90
2023-05-13T21:21:13.336Z,4.17
2023-05-13T21:23:42.434Z,3.87
2023-05-13T21:26:13.176Z,4.00
2023-05-13T21:28:40.000Z,3.90
2023-05-13T21:31:07.151Z,3.90
2023-05-13T21:33:33.887Z,4.10
2023-05-13T21:36:00.481Z,3.57
2023-05-13T21:38:27.259Z,3.57
2023-05-13T21:40:54.441Z,3.90
2023-05-13T21:43:21.114Z,3.50
2023-05-13T21:45:48.135Z,2.90
2023-05-13T21:48:15.162Z,3.57
2023-05-13T21:50:41.998Z,4.17
2023-05-13T21:53:08.647Z,4.53
2023-05-13T21:55:35.247Z,4.80
2023-05-13T21:58:02.955Z,5.23
2023-05-13T22:00:30.145Z,4.57
2023-05-13T22:03:01.278Z,5.30
2023-05-13T22:05:28.314Z,4.77
2023-05-13T22:07:55.133Z,4.77
2023-05-13T22:10:21.896Z,4.33
2023-05-13T22:12:48.736Z,4.07
2023-05-13T22:15:15.714Z,4.00
2023-05-13T22:17:42.462Z,4.13
2023-05-13T22:20:09.535Z,4.03
2023-05-13T22:22:36.211Z,4.30
2023-05-13T22:25:03.347Z,3.70
2023-05-13T22:27:30.092Z,4.10
2023-05-13T22:29:56.821Z,4.67
2023-05-13T22:32:23.651Z,4.80
2023-05-13T22:34:50.832Z,5.07
2023-05-13T22:37:17.440Z,4.70
2023-05-13T22:39:44.243Z,4.77
2023-05-13T22:42:11.062Z,5.10
2023-05-13T22:44:38.700Z,4.80
2023-05-13T22:47:05.924Z,4.90
2023-05-13T22:49:32.559Z,4.90
2023-05-13T22:51:59.236Z,4.40
2023-05-13T22:54:25.963Z,4.37
2023-05-13T22:56:52.662Z,4.47
2023-05-13T22:59:19.335Z,4.30
2023-05-13T23:01:46.111Z,4.80
2023-05-13T23:04:12.920Z,4.67
2023-05-13T23:06:39.578Z,4.93
2023-05-13T23:09:07.459Z,5.03
2023-05-13T23:11:36.116Z,4.50
2023-05-13T23:14:02.752Z,4.87
2023-05-13T23:16:29.567Z,4.67
2023-05-13T23:18:56.330Z,4.77
2023-05-13T23:21:23.021Z,5.20
2023-05-13T23:23:50.353Z,4.80
2023-05-13T23:26:17.143Z,4.60
2023-05-13T23:28:43.829Z,4.40
2023-05-13T23:31:10.607Z,4.30
2023-05-13T23:33:37.281Z,5.27
2023-05-13T23:36:04.183Z,4.90
2023-05-13T23:38:30.825Z,5.00
2023-05-13T23:40:57.477Z,4.30
2023-05-13T23:43:24.077Z,4.37
2023-05-13T23:45:50.935Z,4.63
2023-05-13T23:48:17.619Z,4.60
2023-05-13T23:50:44.350Z,4.40
2023-05-13T23:53:11.008Z,4.67
2023-05-13T23:55:37.650Z,4.30
2023-05-13T23:58:04.430Z,4.57
